Time;durP1;ratioP1;P1;durP2;ratioP2;P2;SDS_P1;SDS_P2;PMS_P1;PMS_P2;Temp;Humidity;BMP_temperature;BMP_pressure;BME280_temperature;BME280_humidity;BME280_pressure;Samples;Min_cycle;Max_cycle;Signal;HPM_P1;HPM_P2
2022/12/27 00:00:07;;;;;;;17.47;6.60;;;;;;;0.49;100.00;101155.84;1766668;81;21034;-74
2022/12/27 00:02:37;;;;;;;16.10;6.37;;;;;;;0.48;100.00;101155.47;1765408;80;21074;-75
2022/12/27 00:05:06;;;;;;;16.20;6.40;;;;;;;0.47;100.00;101156.88;1763291;80;21035;-74
2022/12/27 00:07:33;;;;;;;16.93;7.20;;;;;;;0.43;100.00;101153.52;1746367;80;21057;-73
2022/12/27 00:10:00;;;;;;;15.73;6.63;;;;;;;0.46;100.00;101151.16;1761825;80;21074;-74
2022/12/27 00:12:28;;;;;;;14.87;6.80;;;;;;;0.47;100.00;101161.72;1771149;81;21098;-74
2022/12/27 00:14:55;;;;;;;14.13;6.87;;;;;;;0.46;100.00;101161.80;1746525;81;21068;-74
2022/12/27 00:17:23;;;;;;;17.00;7.50;;;;;;;0.46;100.00;101165.34;1746693;80;21527;-75
2022/12/27 00:19:51;;;;;;;16.47;7.00;;;;;;;0.47;100.00;101170.19;1754421;81;21562;-74
2022/12/27 00:22:20;;;;;;;17.10;7.37;;;;;;;0.50;100.00;101172.22;1771169;81;21040;-73
2022/12/27 00:24:48;;;;;;;16.30;6.90;;;;;;;0.51;100.00;101170.41;1772776;80;21527;-74
2022/12/27 00:27:16;;;;;;;14.73;6.93;;;;;;;0.51;100.00;101173.07;1772045;80;21038;-75
2022/12/27 00:29:44;;;;;;;13.57;6.50;;;;;;;0.52;100.00;101180.13;1770636;80;21058;-73
2022/12/27 00:32:15;;;;;;;14.83;6.50;;;;;;;0.49;100.00;101173.63;1752899;80;20994;-73
2022/12/27 00:34:54;;;;;;;14.20;6.07;;;;;;;0.47;100.00;101165.72;1766693;80;20983;-76
2022/12/27 00:38:02;;;;;;;12.00;5.40;;;;;;;0.48;100.00;101157.25;1772444;80;21038;-74
2022/12/27 00:40:33;;;;;;;10.43;5.40;;;;;;;0.45;100.00;101142.31;1762782;80;21010;-75
2022/12/27 00:43:00;;;;;;;12.70;5.57;;;;;;;0.43;100.00;101132.23;1740601;82;21046;-75
2022/12/27 00:45:29;;;;;;;11.27;6.20;;;;;;;0.40;100.00;101131.53;1736714;82;21089;-74
2022/12/27 00:47:56;;;;;;;12.13;5.77;;;;;;;0.38;100.00;101137.77;1729241;82;21065;-74
2022/12/27 00:50:25;;;;;;;14.17;6.27;;;;;;;0.35;100.00;101133.08;1726048;82;21008;-75
2022/12/27 00:52:53;;;;;;;10.53;5.27;;;;;;;0.33;100.00;101127.83;1729353;82;21045;-75
2022/12/27 00:55:21;;;;;;;11.47;5.70;;;;;;;0.34;100.00;101123.39;1731619;82;21073;-75
2022/12/27 00:57:48;;;;;;;14.17;6.33;;;;;;;0.32;100.00;101130.56;1732716;82;21538;-75
2022/12/27 01:00:16;;;;;;;11.87;6.03;;;;;;;0.31;100.00;101129.72;1725593;82;20986;-75
2022/12/27 01:02:44;;;;;;;13.57;6.40;;;;;;;0.30;100.00;101129.34;1739531;82;21023;-75
2022/12/27 01:05:15;;;;;;;15.63;6.43;;;;;;;0.27;100.00;101116.67;1731399;82;21033;-75
2022/12/27 01:07:43;;;;;;;14.77;6.97;;;;;;;0.26;100.00;101112.27;1739449;82;21533;-74
2022/12/27 01:10:11;;;;;;;13.80;6.10;;;;;;;0.23;100.00;101104.00;1731342;81;21518;-75
2022/12/27 01:12:40;;;;;;;15.93;6.23;;;;;;;0.24;100.00;101103.03;1735157;82;21073;-77
2022/12/27 01:15:09;;;;;;;12.90;5.53;;;;;;;0.22;100.00;101106.25;1734044;82;21057;-74
2022/12/27 01:17:36;;;;;;;10.53;5.40;;;;;;;0.21;100.00;101111.64;1736009;82;21077;-76
2022/12/27 01:20:08;;;;;;;12.73;6.40;;;;;;;0.22;100.00;101102.74;1735178;82;21037;-76
2022/12/27 01:22:35;;;;;;;12.23;5.87;;;;;;;0.20;100.00;101101.48;1742984;82;21497;-75
2022/12/27 01:25:03;;;;;;;12.97;6.00;;;;;;;0.18;100.00;101095.39;1725497;82;20993;-75
2022/12/27 01:27:30;;;;;;;11.83;5.83;;;;;;;0.18;100.00;101113.53;1742008;82;21062;-75
2022/12/27 01:29:57;;;;;;;11.47;5.47;;;;;;;0.18;100.00;101118.00;1732017;82;21577;-75
2022/12/27 01:32:25;;;;;;;12.97;6.07;;;;;;;0.17;100.00;101122.91;1719013;82;21002;-76
2022/12/27 01:34:52;;;;;;;10.57;5.33;;;;;;;0.15;100.00;101124.31;1736302;82;21042;-75
2022/12/27 01:37:19;;;;;;;12.17;6.13;;;;;;;0.11;100.00;101116.59;1729311;82;21532;-75
2022/12/27 01:39:47;;;;;;;12.23;6.20;;;;;;;0.12;100.00;101118.29;1731516;82;21555;-77
2022/12/27 01:45:02;;;;;;;12.27;5.87;;;;;;;0.11;100.00;101105.95;1741475;82;21503;-75
2022/12/27 01:47:41;;;;;;;14.50;6.83;;;;;;;0.11;100.00;101091.32;1737397;82;21081;-75
2022/12/27 01:50:25;;;;;;;14.13;6.47;;;;;;;0.09;100.00;101087.85;1734688;82;21007;-75
2022/12/27 01:53:13;;;;;;;15.17;6.47;;;;;;;0.08;100.00;101092.80;1737740;82;21073;-75
2022/12/27 01:55:52;;;;;;;15.60;7.27;;;;;;;0.07;100.00;101087.08;1728918;82;21070;-76
2022/12/27 01:58:36;;;;;;;16.67;7.43;;;;;;;0.08;100.00;101085.67;1739109;82;21097;-74
2022/12/27 02:01:04;;;;;;;15.47;7.67;;;;;;;0.07;100.00;101082.64;1733761;82;21082;-76
2022/12/27 02:03:35;;;;;;;19.73;8.27;;;;;;;0.09;100.00;101070.12;1722561;82;21077;-75
2022/12/27 02:06:04;;;;;;;19.13;8.37;;;;;;;0.07;100.00;101070.67;1715373;82;21058;-75
2022/12/27 02:09:06;;;;;;;21.07;8.50;;;;;;;0.07;100.00;101077.32;1730019;82;21050;-74
2022/12/27 02:11:50;;;;;;;20.12;8.73;;;;;;;0.09;100.00;101073.22;1723308;81;21069;-75
2022/12/27 02:14:43;;;;;;;19.05;8.03;;;;;;;0.12;100.00;101064.62;1721132;82;21175;-75
2022/12/27 02:17:21;;;;;;;21.07;8.90;;;;;;;0.10;100.00;101062.52;1724898;82;21017;-74
2022/12/27 02:20:17;;;;;;;18.37;8.37;;;;;;;0.10;100.00;101059.00;1721361;82;21073;-75
2022/12/27 02:26:26;;;;;;;21.50;8.97;;;;;;;0.08;100.00;101048.44;1733249;82;21059;-75
2022/12/27 02:29:36;;;;;;;19.83;8.70;;;;;;;0.11;100.00;101052.76;1722587;82;21038;-74
2022/12/27 02:32:16;;;;;;;21.53;9.40;;;;;;;0.11;100.00;101048.77;1733939;82;20999;-76
2022/12/27 02:35:16;;;;;;;19.60;9.23;;;;;;;0.11;100.00;101051.43;1721214;82;21032;-75
2022/12/27 02:38:01;;;;;;;20.07;9.13;;;;;;;0.08;100.00;101038.28;1736282;82;21050;-74
2022/12/27 02:59:09;;;;;;;22.33;8.80;;;;;;;0.13;100.00;101030.45;1726378;82;21543;-75
2022/12/27 03:05:08;;;;;;;20.33;8.50;;;;;;;0.17;100.00;101029.81;1723367;82;21042;-76
2022/12/27 03:08:02;;;;;;;24.63;9.57;;;;;;;0.16;100.00;101026.75;1720983;82;21045;-76
2022/12/27 03:16:54;;;;;;;22.43;9.70;;;;;;;0.24;100.00;101014.40;1731420;82;21070;-76
2022/12/27 03:27:43;;;;;;;20.87;8.73;;;;;;;0.29;100.00;101001.23;1724625;82;21466;-76
2022/12/27 03:33:12;;;;;;;21.93;8.57;;;;;;;0.28;100.00;100991.52;1725076;82;21050;-75
2022/12/27 03:39:06;;;;;;;15.97;7.80;;;;;;;0.29;100.00;100991.08;1721501;82;21022;-74
2022/12/27 03:44:27;;;;;;;;;;;;;;;0.24;100.00;100984.66;1733405;82;21505;-75
2022/12/27 03:47:31;;;;;;;18.07;7.47;;;;;;;0.23;100.00;100974.09;1722506;82;20107;-74
2022/12/27 03:50:24;;;;;;;18.90;7.67;;;;;;;0.19;100.00;100973.41;1721210;82;21042;-74
2022/12/27 03:52:57;;;;;;;;;;;;;;;0.13;100.00;100970.61;1745319;82;21559;-75
2022/12/27 03:55:24;;;;;;;19.07;8.15;;;;;;;0.10;100.00;100969.42;1736932;82;20400;-74
2022/12/27 03:57:52;;;;;;;23.57;9.10;;;;;;;0.06;100.00;100965.70;1720985;82;21025;-75
2022/12/27 04:00:20;;;;;;;20.00;9.07;;;;;;;0.02;100.00;100958.80;1711590;82;21519;-74
2022/12/27 04:02:47;;;;;;;18.07;7.93;;;;;;;-0.03;100.00;100961.24;1723157;82;21618;-74
2022/12/27 04:05:14;;;;;;;18.50;8.27;;;;;;;-0.04;100.00;100963.98;1731061;82;21106;-74
2022/12/27 04:35:18;;;;;;;12.93;6.30;;;;;;;-0.24;100.00;100942.43;1725625;81;21021;-74
2022/12/27 04:37:44;;;;;;;11.30;5.40;;;;;;;-0.25;100.00;100942.03;1737674;82;21102;-74
2022/12/27 04:56:46;;;;;;;18.40;7.77;;;;;;;-0.30;100.00;100918.81;1744899;82;21031;-74
2022/12/27 05:02:03;;;;;;;18.60;6.97;;;;;;;-0.31;100.00;100912.65;1704970;83;21042;-74
2022/12/27 05:04:32;;;;;;;19.27;8.08;;;;;;;-0.32;100.00;100909.62;1715376;82;21050;-73
2022/12/27 05:13:58;;;;;;;17.00;6.80;;;;;;;-0.32;100.00;100905.63;1732597;82;21523;-74
2022/12/27 05:14:59;;;;;;;12.07;5.97;;;;;;;-0.29;100.00;100907.26;1735998;82;21031;-73
2022/12/27 05:17:26;;;;;;;13.43;6.30;;;;;;;-0.28;100.00;100898.36;1736935;82;21029;-74
2022/12/27 05:19:53;;;;;;;13.17;5.70;;;;;;;-0.29;100.00;100899.28;1735887;82;21074;-74
2022/12/27 05:27:51;;;;;;;13.13;5.23;;;;;;;-0.27;100.00;100906.70;1738326;82;21065;-74
2022/12/27 05:30:18;;;;;;;13.43;6.07;;;;;;;-0.29;100.00;100903.27;1729088;82;21022;-73
2022/12/27 05:32:45;;;;;;;12.60;5.73;;;;;;;-0.29;100.00;100907.26;1736037;82;21062;-74
2022/12/27 05:35:12;;;;;;;13.00;6.23;;;;;;;-0.29;100.00;100909.91;1739723;82;21011;-74
2022/12/27 05:37:40;;;;;;;16.00;6.97;;;;;;;-0.29;100.00;100911.24;1735697;82;21088;-73
2022/12/27 05:40:10;;;;;;;14.27;6.33;;;;;;;-0.31;100.00;100907.33;1737006;82;20986;-74
2022/12/27 05:42:38;;;;;;;16.60;6.43;;;;;;;-0.31;100.00;100908.66;1741319;82;21042;-74
2022/12/27 05:45:07;;;;;;;17.07;6.83;;;;;;;-0.28;100.00;100913.83;1738422;82;21480;-74
2022/12/27 05:47:35;;;;;;;14.07;6.30;;;;;;;-0.29;100.00;100900.13;1730389;82;21037;-74
2022/12/27 05:50:03;;;;;;;10.63;5.53;;;;;;;-0.29;100.00;100893.97;1725575;82;21099;-75
2022/12/27 05:52:31;;;;;;;13.23;5.97;;;;;;;-0.30;100.00;100881.61;1723933;83;21062;-75
2022/12/27 05:54:58;;;;;;;14.30;6.47;;;;;;;-0.31;100.00;100885.22;1725483;83;21130;-77
2022/12/27 05:57:26;;;;;;;15.67;7.27;;;;;;;-0.30;100.00;100881.61;1726053;83;21028;-75
2022/12/27 05:59:53;;;;;;;20.10;9.33;;;;;;;-0.28;100.00;100879.27;1726114;83;21038;-74
2022/12/27 06:02:20;;;;;;;30.53;14.40;;;;;;;-0.26;100.00;100874.73;1724193;83;21031;-74
2022/12/27 06:04:47;;;;;;;21.83;9.83;;;;;;;-0.27;100.00;100874.33;1723794;83;21091;-74
2022/12/27 06:07:14;;;;;;;18.80;8.07;;;;;;;-0.26;100.00;100862.77;1723330;82;21070;-75
2022/12/27 06:09:43;;;;;;;17.63;8.10;;;;;;;-0.27;100.00;100855.72;1724525;83;21136;-74
2022/12/27 06:12:10;;;;;;;22.93;9.17;;;;;;;-0.26;100.00;100847.30;1728940;83;21001;-74
2022/12/27 06:14:37;;;;;;;18.67;8.60;;;;;;;-0.29;100.00;100845.65;1727224;83;21025;-74
2022/12/27 06:17:04;;;;;;;18.10;8.57;;;;;;;-0.28;100.00;100837.23;1729656;82;21078;-74
2022/12/27 06:19:32;;;;;;;15.50;7.87;;;;;;;-0.26;100.00;100830.02;1726989;83;21058;-74
2022/12/27 06:21:59;;;;;;;16.90;8.13;;;;;;;-0.26;100.00;100824.70;1724539;83;21057;-76
2022/12/27 06:24:26;;;;;;;13.10;6.03;;;;;;;-0.25;100.00;100818.44;1724155;83;21033;-75
2022/12/27 06:26:54;;;;;;;11.27;5.80;;;;;;;-0.25;100.00;100815.77;1725039;83;21088;-74
2022/12/27 06:29:21;;;;;;;13.23;5.70;;;;;;;-0.26;100.00;100816.25;1726250;83;21493;-74
2022/12/27 06:31:48;;;;;;;19.97;8.63;;;;;;;-0.24;100.00;100816.17;1724733;83;21012;-75
2022/12/27 06:34:15;;;;;;;30.27;11.57;;;;;;;-0.24;100.00;100812.19;1726112;83;21054;-75
2022/12/27 06:36:48;;;;;;;20.90;9.97;;;;;;;-0.25;100.00;100810.02;1722398;83;21062;-74
2022/12/27 06:39:11;;;;;;;18.47;8.20;;;;;;;-0.25;100.00;100802.04;1726396;83;21061;-73
2022/12/27 06:41:38;;;;;;;13.07;6.90;;;;;;;-0.23;100.00;100794.83;1724403;83;21538;-74
2022/12/27 06:44:05;;;;;;;10.87;5.93;;;;;;;-0.25;100.00;100790.52;1725487;82;21058;-74
2022/12/27 06:46:33;;;;;;;7.67;4.70;;;;;;;-0.27;100.00;100791.93;1723810;83;21141;-74
2022/12/27 06:49:00;;;;;;;9.30;5.23;;;;;;;-0.26;100.00;100788.34;1736888;82;21066;-76
2022/12/27 06:51:27;;;;;;;8.70;4.97;;;;;;;-0.27;100.00;100777.80;1741299;81;21085;-77
2022/12/27 06:53:55;;;;;;;9.47;4.90;;;;;;;-0.27;100.00;100775.14;1736004;81;21126;-79
2022/12/27 06:56:27;;;;;;;7.07;3.97;;;;;;;-0.25;100.00;100775.91;1746167;81;21089;-78
2022/12/27 06:58:56;;;;;;;6.50;3.90;;;;;;;-0.25;100.00;100768.81;1742658;81;21030;-77
2022/12/27 07:01:25;;;;;;;9.60;4.33;;;;;;;-0.24;100.00;100756.38;1735943;81;21085;-76
2022/12/27 07:03:55;;;;;;;9.27;4.30;;;;;;;-0.24;100.00;100755.89;1726822;81;21014;-80
2022/12/27 07:06:24;;;;;;;9.77;4.70;;;;;;;-0.25;100.00;100744.89;1731019;81;21033;-80
2022/12/27 07:08:51;;;;;;;8.23;4.80;;;;;;;-0.24;100.00;100729.31;1749535;82;21062;-75
2022/12/27 07:11:20;;;;;;;16.43;7.63;;;;;;;-0.24;100.00;100729.31;1736777;82;21035;-76
2022/12/27 07:13:49;;;;;;;11.33;5.23;;;;;;;-0.22;100.00;100726.57;1741754;82;20995;-75
2022/12/27 07:16:36;;;;;;;13.80;5.53;;;;;;;-0.20;100.00;100732.66;1732949;81;21033;-75
2022/12/27 07:22:58;;;;;;;7.97;4.27;;;;;;;-0.13;100.00;100728.71;1735953;82;21093;-75
2022/12/27 07:25:26;;;;;;;12.80;5.20;;;;;;;-0.10;100.00;100716.59;1734557;82;21030;-75
2022/12/27 07:27:54;;;;;;;7.77;4.73;;;;;;;-0.08;100.00;100720.49;1766793;80;21062;-76
2022/12/27 07:30:30;;;;;;;10.27;4.87;;;;;;;-0.07;100.00;100710.22;1734981;82;21078;-77
2022/12/27 07:32:57;;;;;;;8.10;4.17;;;;;;;-0.05;100.00;100713.20;1725921;82;21061;-78
2022/12/27 07:35:25;;;;;;;11.27;4.83;;;;;;;-0.02;100.00;100718.35;1732710;83;21031;-79
2022/12/27 07:37:53;;;;;;;10.73;5.30;;;;;;;0.01;100.00;100713.32;1733388;82;21080;-80
2022/12/27 07:40:20;;;;;;;13.40;5.77;;;;;;;0.02;100.00;100714.17;1732969;82;21027;-77
2022/12/27 07:42:47;;;;;;;14.50;6.53;;;;;;;0.02;100.00;100699.55;1729145;82;21409;-76
2022/12/27 07:45:15;;;;;;;17.63;6.63;;;;;;;0.03;100.00;100699.46;1708248;82;21129;-80
2022/12/27 07:47:42;;;;;;;13.10;6.47;;;;;;;0.04;100.00;100699.01;1749502;82;21507;-75
2022/12/27 07:50:11;;;;;;;14.37;6.57;;;;;;;0.05;100.00;100692.25;1767522;81;21496;-78
2022/12/27 07:52:42;;;;;;;17.30;6.73;;;;;;;0.07;100.00;100694.83;1712312;82;21003;-74
2022/12/27 07:55:11;;;;;;;15.47;6.27;;;;;;;0.10;100.00;100694.66;1771573;80;21050;-76
2022/12/27 07:57:39;;;;;;;13.23;6.83;;;;;;;0.11;100.00;100687.92;1762054;80;21566;-78
2022/12/27 08:00:08;;;;;;;14.80;6.17;;;;;;;0.12;100.00;100675.47;1736649;82;21463;-76
2022/12/27 08:02:37;;;;;;;13.23;5.70;;;;;;;0.16;100.00;100682.31;1730405;82;21068;-75
2022/12/27 08:05:04;;;;;;;13.60;6.10;;;;;;;0.18;100.00;100674.66;1774939;80;21042;-74
2022/12/27 08:07:32;;;;;;;13.67;7.33;;;;;;;0.21;100.00;100668.28;1762669;80;21014;-75
2022/12/27 08:10:04;;;;;;;12.03;7.20;;;;;;;0.24;100.00;100665.94;1727549;82;21073;-74
2022/12/27 08:12:34;;;;;;;11.00;6.30;;;;;;;0.26;100.00;100672.02;1732821;82;21070;-75
2022/12/27 08:15:03;;;;;;;11.77;7.27;;;;;;;0.29;100.00;100670.03;1727207;82;21045;-77
2022/12/27 08:17:30;;;;;;;11.37;6.83;;;;;;;0.34;100.00;100666.64;1727808;82;21066;-77
2022/12/27 08:19:57;;;;;;;10.47;6.40;;;;;;;0.38;100.00;100671.30;1742730;81;21080;-76
2022/12/27 08:22:24;;;;;;;11.57;6.93;;;;;;;0.41;100.00;100656.95;1767435;81;21043;-76
2022/12/27 08:24:55;;;;;;;12.50;7.67;;;;;;;0.45;100.00;100651.84;1766835;80;21077;-76
2022/12/27 08:27:23;;;;;;;13.40;7.30;;;;;;;0.48;100.00;100648.53;1746280;81;21046;-76
2022/12/27 08:29:50;;;;;;;9.23;5.37;;;;;;;0.52;100.00;100641.22;1779297;80;21113;-77
2022/12/27 08:32:17;;;;;;;9.23;5.00;;;;;;;0.57;100.00;100641.80;1741196;80;21055;-70
2022/12/27 08:34:46;;;;;;;11.80;4.97;;;;;;;0.61;100.00;100640.66;1726943;82;20983;-69
2022/12/27 08:37:14;;;;;;;9.90;5.57;;;;;;;0.66;100.00;100637.25;1724326;82;21030;-72
2022/12/27 08:39:41;;;;;;;10.67;5.80;;;;;;;0.71;100.00;100631.66;1727176;81;20994;-69
2022/12/27 08:42:11;;;;;;;13.87;6.67;;;;;;;0.75;100.00;100633.17;1726349;82;21077;-71
2022/12/27 08:44:38;;;;;;;16.17;6.93;;;;;;;0.82;100.00;100634.99;1722339;82;21042;-70
2022/12/27 08:47:05;;;;;;;17.77;8.23;;;;;;;0.88;100.00;100623.95;1699536;82;21472;-72
2022/12/27 08:49:34;;;;;;;13.00;6.03;;;;;;;0.92;100.00;100629.45;1714551;82;21046;-70
2022/12/27 08:52:08;;;;;;;17.53;7.93;;;;;;;1.00;100.00;100621.02;1736249;81;21538;-70
2022/12/27 08:54:36;;;;;;;15.33;7.60;;;;;;;1.04;100.00;100621.19;1738741;81;20994;-68
2022/12/27 08:57:03;;;;;;;16.43;7.83;;;;;;;1.08;100.00;100621.37;1756562;81;21081;-70
2022/12/27 08:59:30;;;;;;;14.90;7.57;;;;;;;1.12;100.00;100608.27;1755115;80;21110;-70
2022/12/27 09:01:57;;;;;;;15.13;7.50;;;;;;;1.18;100.00;100610.52;1758626;81;21029;-71
2022/12/27 09:04:24;;;;;;;13.77;7.10;;;;;;;1.25;100.00;100609.66;1746374;81;21125;-71
2022/12/27 09:06:53;;;;;;;14.00;7.50;;;;;;;1.30;100.00;100608.41;1733509;81;21034;-72
2022/12/27 09:09:20;;;;;;;12.07;6.17;;;;;;;1.36;100.00;100608.50;1729578;81;21028;-71
2022/12/27 09:11:48;;;;;;;16.10;6.97;;;;;;;1.40;100.00;100599.37;1731881;81;21048;-72
2022/12/27 09:14:16;;;;;;;16.57;7.43;;;;;;;1.44;100.00;100602.20;1732807;81;21492;-70
2022/12/27 09:16:44;;;;;;;13.87;6.33;;;;;;;1.45;100.00;100605.72;1724811;81;21004;-71
2022/12/27 09:19:11;;;;;;;10.93;5.10;;;;;;;1.48;100.00;100600.20;1741456;81;20982;-71
2022/12/27 09:21:41;;;;;;;8.83;4.03;;;;;;;1.54;100.00;100598.94;1740455;81;21035;-71
2022/12/27 09:24:16;;;;;;;10.70;4.93;;;;;;;1.60;100.00;100593.23;1738375;81;21071;-68
2022/12/27 09:26:44;;;;;;;8.37;4.33;;;;;;;1.65;100.00;100595.97;1732619;81;21119;-70
2022/12/27 09:29:11;;;;;;;13.17;5.27;;;;;;;1.69;100.00;100589.95;1740282;81;21009;-71
2022/12/27 09:31:38;;;;;;;9.57;5.13;;;;;;;1.72;100.00;100575.09;1730521;82;21017;-69
2022/12/27 09:34:05;;;;;;;8.00;4.70;;;;;;;1.76;100.00;100572.59;1735735;81;21077;-71
2022/12/27 09:36:34;;;;;;;7.67;4.23;;;;;;;1.80;100.00;100571.42;1717485;82;21037;-69
2022/12/27 09:39:02;;;;;;;9.60;5.60;;;;;;;1.82;100.00;100562.84;1663874;82;21093;-69
2022/12/27 09:41:43;;;;;;;9.17;4.67;;;;;;;1.87;100.00;100577.22;1734756;82;21051;-70
2022/12/27 09:48:12;;;;;;;;;;;;;;;1.93;100.00;100556.82;1725926;82;21114;-70
2022/12/27 09:50:51;;;;;;;;;;;;;;;2.01;100.00;100557.14;1767302;80;20124;-70
2022/12/27 09:53:33;;;;;;;9.27;5.00;;;;;;;2.06;100.00;100552.84;1716227;81;20271;-71
2022/12/27 09:56:04;;;;;;;8.80;4.40;;;;;;;2.08;100.00;100553.58;1750112;80;21019;-70
2022/12/27 09:58:43;;;;;;;11.97;4.90;;;;;;;2.10;100.00;100550.33;1725701;82;21115;-71
2022/12/27 10:01:39;;;;;;;11.70;4.90;;;;;;;2.13;100.00;100542.13;1724296;82;20998;-71
2022/12/27 10:04:13;;;;;;;10.17;5.37;;;;;;;2.16;100.00;100549.05;1721959;82;21034;-72
2022/12/27 10:06:57;;;;;;;11.93;5.63;;;;;;;2.19;100.00;100547.03;1735031;82;21046;-72
2022/12/27 10:10:02;;;;;;;15.07;5.37;;;;;;;2.22;100.00;100547.31;1732438;82;21030;-70
2022/12/27 10:16:33;;;;;;;6.43;4.10;;;;;;;2.31;100.00;100532.00;1665888;82;21065;-68
2022/12/27 10:19:26;;;;;;;8.67;4.23;;;;;;;2.40;100.00;100531.84;1721864;82;21090;-71
2022/12/27 10:40:24;;;;;;;8.97;4.87;;;;;;;2.89;100.00;100604.52;1784399;80;22950;-83
2022/12/27 10:43:05;;;;;;;10.63;5.43;;;;;;;2.90;100.00;100491.84;1762537;81;21019;-82
2022/12/27 10:45:41;;;;;;;10.13;5.50;;;;;;;2.94;100.00;100498.66;1707437;83;21049;-78
2022/12/27 10:48:20;;;;;;;7.33;4.97;;;;;;;2.97;100.00;100499.28;1765609;81;21503;-81
2022/12/27 10:51:01;;;;;;;11.57;5.27;;;;;;;3.01;100.00;100500.80;1763672;79;21036;-81
2022/12/27 10:53:49;;;;;;;20.50;8.20;;;;;;;3.05;100.00;100502.77;1772367;80;21069;-77
2022/12/27 10:56:37;;;;;;;9.47;5.10;;;;;;;3.08;100.00;100497.20;1774785;80;21108;-81
2022/12/27 10:59:18;;;;;;;6.63;4.47;;;;;;;3.12;100.00;100503.17;1772208;80;21033;-77
2022/12/27 11:01:51;;;;;;;7.80;4.30;;;;;;;3.15;100.00;100499.80;1766069;81;20991;-84
2022/12/27 11:04:25;;;;;;;9.40;4.53;;;;;;;3.18;100.00;100510.23;1745358;81;21010;-81
2022/12/27 11:07:05;;;;;;;17.57;7.90;;;;;;;3.25;100.00;100511.98;1743665;81;21046;-82
2022/12/27 11:09:40;;;;;;;11.87;6.63;;;;;;;3.31;100.00;100508.00;1764007;81;21052;-80
2022/12/27 11:12:27;;;;;;;9.33;5.70;;;;;;;3.35;100.00;100500.99;1764242;81;20970;-81
2022/12/27 11:15:14;;;;;;;9.80;5.70;;;;;;;3.41;100.00;100502.36;1759115;81;21496;-77
2022/12/27 11:18:03;;;;;;;10.20;5.67;;;;;;;3.45;100.00;100494.95;1744931;81;21601;-83
2022/12/27 11:28:45;;;;;;;12.03;6.53;;;;;;;3.57;100.00;100471.31;1689858;83;21127;-81
2022/12/27 11:31:22;;;;;;;13.13;6.20;;;;;;;3.63;100.00;100472.66;1700787;82;21037;-80
2022/12/27 11:33:52;;;;;;;8.67;5.57;;;;;;;3.67;100.00;100483.03;1716141;82;21047;-79
2022/12/27 11:36:32;;;;;;;14.00;6.90;;;;;;;3.70;100.00;100484.14;1717036;82;21010;-82
2022/12/27 11:39:00;;;;;;;19.87;8.70;;;;;;;3.74;100.00;100484.27;1739177;82;21518;-79
2022/12/27 11:41:48;;;;;;;10.73;5.70;;;;;;;3.77;100.00;100484.51;1723378;82;21063;-78
2022/12/27 11:44:27;;;;;;;12.87;5.87;;;;;;;3.81;100.00;100484.66;1705662;84;21065;-78
2022/12/27 11:47:13;;;;;;;15.07;6.50;;;;;;;3.85;100.00;100489.30;1711341;83;21033;-76
2022/12/27 11:49:52;;;;;;;16.63;7.93;;;;;;;3.88;100.00;100483.69;1698582;83;20998;-76
2022/12/27 11:52:53;;;;;;;14.60;7.07;;;;;;;3.90;100.00;100481.28;1698065;83;21086;-77
2022/12/27 11:55:53;;;;;;;8.57;5.17;;;;;;;3.95;100.00;100478.27;1724838;83;21032;-77
2022/12/27 11:58:55;;;;;;;10.43;6.17;;;;;;;3.97;100.00;100466.95;1735452;83;21053;-70
2022/12/27 12:02:07;;;;;;;9.37;5.07;;;;;;;3.98;100.00;100468.18;1697646;83;21421;-68
2022/12/27 12:05:03;;;;;;;10.03;5.80;;;;;;;4.02;100.00;100471.94;1682832;83;21081;-71
2022/12/27 12:08:02;;;;;;;9.40;5.23;;;;;;;4.05;100.00;100462.34;1694468;83;21043;-70
2022/12/27 12:10:50;;;;;;;10.90;5.87;;;;;;;4.07;100.00;100458.59;1696842;84;21065;-70
2022/12/27 12:13:42;;;;;;;12.40;6.13;;;;;;;4.13;100.00;100462.11;1697610;84;21038;-69
2022/12/27 12:16:46;;;;;;;9.87;6.27;;;;;;;4.16;100.00;100458.33;1689947;84;21042;-70
2022/12/27 12:19:53;;;;;;;12.07;6.77;;;;;;;4.20;100.00;100458.48;1692074;83;21048;-70
2022/12/27 12:22:48;;;;;;;10.27;6.07;;;;;;;4.24;100.00;100447.89;1706613;83;21100;-70
2022/12/27 12:25:40;;;;;;;12.10;6.80;;;;;;;4.27;100.00;100444.98;1695689;84;21350;-71
2022/12/27 12:29:03;;;;;;;12.70;6.37;;;;;;;4.29;100.00;100447.05;1718176;83;21014;-70
2022/12/27 12:32:13;;;;;;;10.13;5.70;;;;;;;4.33;100.00;100447.16;1664843;86;21031;-70
2022/12/27 12:35:14;;;;;;;10.33;6.00;;;;;;;4.36;100.00;100448.27;1706359;84;21046;-71
2022/12/27 12:38:06;;;;;;;11.00;6.03;;;;;;;4.38;100.00;100444.97;1702534;83;21477;-69
2022/12/27 12:40:45;;;;;;;12.40;6.53;;;;;;;4.42;100.00;100450.09;1705397;83;21012;-71
2022/12/27 12:43:25;;;;;;;11.97;6.63;;;;;;;4.43;100.00;100456.67;1674050;85;21018;-71
2022/12/27 12:46:17;;;;;;;13.90;5.67;;;;;;;4.47;100.00;100468.83;1648827;86;21011;-72
2022/12/27 12:49:11;;;;;;;17.60;7.83;;;;;;;4.50;100.00;100461.91;1701163;84;21057;-70
2022/12/27 12:51:54;;;;;;;14.13;6.57;;;;;;;4.54;100.00;100463.84;1707191;83;21018;-71
2022/12/27 12:54:45;;;;;;;17.03;7.67;;;;;;;4.56;100.00;100458.72;1715950;83;21018;-71
2022/12/27 12:57:38;;;;;;;16.87;7.30;;;;;;;4.60;100.00;100466.52;1694356;84;21046;-71
2022/12/27 13:00:30;;;;;;;14.37;6.90;;;;;;;4.63;100.00;100466.28;1705163;84;21054;-72
2022/12/27 13:03:32;;;;;;;14.30;7.23;;;;;;;4.65;100.00;100465.17;1710385;82;21022;-72
2022/12/27 13:10:24;;;;;;;19.03;8.40;;;;;;;4.72;100.00;100461.52;1666405;86;21030;-71
2022/12/27 13:13:16;;;;;;;16.67;7.10;;;;;;;4.75;100.00;100456.77;1666967;86;21086;-71
2022/12/27 13:16:26;;;;;;;19.00;8.10;;;;;;;4.78;100.00;100450.33;1665092;85;21031;-71
2022/12/27 13:19:41;;;;;;;15.77;7.57;;;;;;;4.78;100.00;100457.03;1698563;84;21061;-71
2022/12/27 13:22:18;;;;;;;16.53;7.97;;;;;;;4.78;100.00;100453.02;1698161;84;21016;-71
2022/12/27 13:25:41;;;;;;;17.63;7.83;;;;;;;4.80;100.00;100448.84;1685079;84;20975;-71
2022/12/27 13:28:36;;;;;;;15.60;7.03;;;;;;;4.82;100.00;100444.23;1693510;84;21055;-71
2022/12/27 13:31:19;;;;;;;16.00;8.13;;;;;;;4.85;100.00;100450.20;1678140;83;21575;-70
2022/12/27 13:34:11;;;;;;;13.28;7.25;;;;;;;4.87;100.00;100446.90;1686949;84;21003;-71
2022/12/27 13:36:56;;;;;;;19.53;8.33;;;;;;;4.88;100.00;100450.42;1686455;84;21047;-70
2022/12/27 13:40:07;;;;;;;16.17;7.57;;;;;;;4.90;100.00;100442.61;1690754;84;20956;-71
2022/12/27 13:42:56;;;;;;;15.50;7.70;;;;;;;4.93;100.00;100435.67;1673566;84;21003;-71
2022/12/27 13:45:58;;;;;;;14.97;7.00;;;;;;;4.97;100.00;100440.78;1660148;86;21090;-76
2022/12/27 13:49:05;;;;;;;11.83;6.07;;;;;;;4.97;100.00;100439.45;1660885;85;21007;-80
2022/12/27 13:51:44;;;;;;;12.47;6.93;;;;;;;5.01;100.00;100443.10;1657714;86;21520;-78
2022/12/27 13:54:35;;;;;;;13.23;6.80;;;;;;;5.05;100.00;100439.69;1661087;86;20988;-77
2022/12/27 13:57:29;;;;;;;12.13;6.67;;;;;;;5.06;100.00;100440.03;1661099;86;21147;-77
2022/12/27 14:00:20;;;;;;;13.10;6.90;;;;;;;5.09;100.00;100445.98;1676926;85;21568;-76
2022/12/27 14:03:11;;;;;;;14.50;7.40;;;;;;;5.12;100.00;100441.72;1660269;86;21097;-76
2022/12/27 14:06:04;;;;;;;12.17;6.20;;;;;;;5.13;100.00;100442.56;1662171;86;20974;-78
2022/12/27 14:08:55;;;;;;;11.63;6.67;;;;;;;5.14;100.00;100440.27;1660039;86;21026;-80
2022/12/27 14:11:31;;;;;;;13.37;6.80;;;;;;;5.16;100.00;100436.95;1661476;86;20999;-77
2022/12/27 14:13:58;;;;;;;12.03;6.77;;;;;;;5.19;100.00;100439.86;1653339;86;21071;-79
2022/12/27 14:17:05;;;;;;;11.90;6.23;;;;;;;5.19;100.00;100434.03;1661854;84;21150;-71
2022/12/27 14:19:52;;;;;;;13.57;7.77;;;;;;;5.21;100.00;100437.44;1678869;85;21071;-69
2022/12/27 14:22:45;;;;;;;13.40;6.57;;;;;;;5.23;100.00;100433.29;1628293;86;21043;-71
2022/12/27 14:25:31;;;;;;;;;;;;;;;5.23;100.00;100434.13;1652734;87;21574;-73
2022/12/27 14:41:21;;;;;;;14.20;8.03;;;;;;;5.59;100.00;100562.64;1796898;79;23408;-79
2022/12/27 14:44:23;;;;;;;11.43;6.60;;;;;;;5.48;94.70;100398.06;1772956;80;21026;-77